Time;durP1;ratioP1;P1;durP2;ratioP2;P2;SDS_P1;SDS_P2;PMS_P1;PMS_P2;Temp;Humidity;BMP_temperature;BMP_pressure;BME280_temperature;BME280_humidity;BME280_pressure;Samples;Min_cycle;Max_cycle;Signal;HPM_P1;HPM_P2
2022/11/11 00:01:54;;;;;;;9.68;6.97;;;;;;;10.66;100.00;102776.44;5297936;28;20036;-78
2022/11/11 00:04:26;;;;;;;10.93;7.93;;;;;;;10.69;100.00;102773.66;5296998;28;20122;-82
2022/11/11 00:06:58;;;;;;;9.32;6.88;;;;;;;10.74;100.00;102776.03;5294673;28;20432;-79
2022/11/11 00:09:29;;;;;;;10.18;7.60;;;;;;;10.77;100.00;102771.47;5297315;28;20044;-79
2022/11/11 00:12:00;;;;;;;11.00;7.90;;;;;;;10.77;100.00;102783.72;5295330;28;20039;-78
2022/11/11 00:14:32;;;;;;;12.48;8.25;;;;;;;10.79;100.00;102774.84;5296701;28;20086;-78
2022/11/11 00:25:33;;;;;;;11.85;8.10;;;;;;;10.82;100.00;102764.19;5295986;28;20039;-78
2022/11/11 00:28:04;;;;;;;12.38;9.30;;;;;;;10.86;100.00;102772.72;5276047;28;20032;-78
2022/11/11 00:30:35;;;;;;;12.38;9.18;;;;;;;10.88;100.00;102769.09;5296583;28;20385;-79
2022/11/11 00:33:07;;;;;;;14.43;8.98;;;;;;;10.93;100.00;102777.53;5297246;28;20122;-78
2022/11/11 00:35:53;;;;;;;12.65;9.02;;;;;;;10.98;100.00;102792.19;5296642;28;20662;-79
2022/11/11 00:41:20;;;;;;;15.38;10.07;;;;;;;11.07;100.00;102784.66;5295672;28;20411;-82
2022/11/11 00:43:51;;;;;;;12.02;9.10;;;;;;;11.01;100.00;102784.97;5296118;28;20044;-79
2022/11/11 00:52:03;;;;;;;12.68;9.70;;;;;;;10.94;100.00;102788.88;5294979;28;20052;-80
2022/11/11 00:54:34;;;;;;;14.55;10.32;;;;;;;10.99;100.00;102792.09;5296518;28;20044;-81
2022/11/11 00:57:06;;;;;;;12.27;10.10;;;;;;;11.01;100.00;102803.34;5293972;28;20047;-78
2022/11/11 00:59:39;;;;;;;14.07;10.25;;;;;;;11.02;100.00;102796.31;5296692;28;20142;-81
2022/11/11 01:02:10;;;;;;;11.93;10.25;;;;;;;11.07;100.00;102802.19;5297167;28;20035;-79
2022/11/11 01:04:41;;;;;;;13.80;10.75;;;;;;;11.08;100.00;102806.47;5295986;28;20036;-81
2022/11/11 01:07:13;;;;;;;11.98;9.43;;;;;;;11.09;100.00;102814.25;5296795;28;20093;-78
2022/11/11 01:09:44;;;;;;;14.43;10.13;;;;;;;10.99;100.00;102802.59;5297344;28;20080;-78
2022/11/11 01:12:15;;;;;;;14.00;10.38;;;;;;;11.09;100.00;102816.03;5296166;28;20044;-78
2022/11/11 01:14:47;;;;;;;12.05;10.35;;;;;;;11.08;100.00;102824.84;5296804;28;20032;-78
2022/11/11 01:17:18;;;;;;;10.70;9.57;;;;;;;11.05;100.00;102811.88;5296756;28;20016;-80
2022/11/11 01:19:50;;;;;;;12.55;9.60;;;;;;;11.05;100.00;102814.50;5296129;28;20040;-81
2022/11/11 01:22:21;;;;;;;15.63;10.50;;;;;;;11.11;100.00;102816.81;5296083;28;20043;-79
2022/11/11 01:24:52;;;;;;;15.07;10.07;;;;;;;11.12;100.00;102815.88;5295857;28;20124;-78
2022/11/11 01:27:23;;;;;;;14.48;10.27;;;;;;;11.06;100.00;102806.59;5295303;28;20515;-79
2022/11/11 01:29:55;;;;;;;13.45;10.88;;;;;;;11.13;100.00;102817.56;5296599;28;20158;-78
2022/11/11 01:32:26;;;;;;;13.18;10.30;;;;;;;11.12;100.00;102808.84;5296060;28;20032;-78
2022/11/11 01:34:57;;;;;;;13.45;10.68;;;;;;;11.12;100.00;102813.25;5295860;28;20039;-78
2022/11/11 01:37:31;;;;;;;15.75;11.13;;;;;;;11.13;100.00;102815.78;5296042;28;20040;-79
2022/11/11 01:40:03;;;;;;;12.93;10.73;;;;;;;11.12;100.00;102813.25;5296019;28;20063;-80
2022/11/11 01:43:17;;;;;;;15.35;11.00;;;;;;;11.49;100.00;102805.94;5295762;28;20036;-78
2022/11/11 01:45:58;;;;;;;12.20;9.95;;;;;;;11.30;100.00;102811.38;5296071;28;20043;-78
2022/11/11 01:51:41;;;;;;;12.43;9.55;;;;;;;11.26;100.00;102799.38;5299480;28;20032;-78
2022/11/11 01:54:28;;;;;;;12.00;10.25;;;;;;;11.29;100.00;102788.69;5299329;28;20080;-78
2022/11/11 01:57:28;;;;;;;12.23;10.43;;;;;;;11.41;100.00;102795.88;5299927;28;20499;-79
2022/11/11 02:00:06;;;;;;;15.40;11.02;;;;;;;11.16;100.00;102792.00;5296428;28;20524;-78
2022/11/11 02:02:51;;;;;;;12.98;10.20;;;;;;;11.18;100.00;102797.19;5299395;28;20365;-77
2022/11/11 02:05:44;;;;;;;16.60;10.73;;;;;;;11.12;100.00;102800.13;5300258;28;20032;-78
2022/11/11 02:08:31;;;;;;;17.08;11.88;;;;;;;11.32;100.00;102802.47;5299982;28;20135;-82
2022/11/11 02:11:05;;;;;;;15.63;11.35;;;;;;;11.16;100.00;102799.03;5300345;28;20055;-77
2022/11/11 02:16:31;;;;;;;14.20;11.02;;;;;;;11.09;100.00;102795.88;5299445;28;20024;-78
2022/11/11 02:19:02;;;;;;;16.15;10.85;;;;;;;11.06;100.00;102779.47;5298763;28;20477;-79
2022/11/11 02:21:40;;;;;;;17.20;11.20;;;;;;;11.14;100.00;102786.00;5299141;28;20606;-77
2022/11/11 02:24:17;;;;;;;15.02;10.73;;;;;;;11.17;100.00;102785.84;5298439;28;20029;-81
2022/11/11 02:26:49;;;;;;;15.00;10.88;;;;;;;11.09;100.00;102776.69;5298022;28;20035;-77
2022/11/11 02:29:21;;;;;;;15.25;11.05;;;;;;;11.09;100.00;102774.91;5299982;28;20245;-77
2022/11/11 02:31:53;;;;;;;16.55;11.88;;;;;;;11.04;100.00;102757.75;5300064;28;20067;-78
2022/11/11 02:34:31;;;;;;;13.73;10.50;;;;;;;11.14;100.00;102761.56;5299042;28;20062;-77
2022/11/11 02:37:06;;;;;;;15.52;11.02;;;;;;;11.10;100.00;102773.13;5300519;28;20043;-78
2022/11/11 02:39:43;;;;;;;13.02;9.90;;;;;;;10.99;100.00;102765.88;5312440;28;20044;-78
2022/11/11 02:42:17;;;;;;;14.45;10.38;;;;;;;11.01;100.00;102778.91;5310388;28;20050;-78
2022/11/11 02:44:48;;;;;;;11.98;9.80;;;;;;;11.00;100.00;102777.22;5310355;28;20058;-78
2022/11/11 02:47:19;;;;;;;17.00;10.25;;;;;;;10.95;100.00;102767.84;5312586;28;20024;-78
2022/11/11 02:49:51;;;;;;;12.55;9.57;;;;;;;10.98;100.00;102774.66;5311528;28;20028;-78
2022/11/11 02:52:22;;;;;;;16.90;10.75;;;;;;;11.00;100.00;102766.72;5307416;28;20064;-78
2022/11/11 02:54:53;;;;;;;16.83;9.63;;;;;;;10.99;100.00;102765.03;5310952;28;20025;-78
2022/11/11 02:57:24;;;;;;;17.08;10.32;;;;;;;10.95;100.00;102762.59;5312309;28;20356;-78
2022/11/11 02:59:58;;;;;;;12.85;9.30;;;;;;;10.95;100.00;102762.59;5313500;28;20031;-78
2022/11/11 03:02:30;;;;;;;13.32;9.93;;;;;;;10.95;100.00;102759.13;5311211;28;20035;-78
2022/11/11 03:05:01;;;;;;;12.90;9.70;;;;;;;10.94;100.00;102757.41;5313093;28;20032;-78
2022/11/11 03:07:32;;;;;;;12.82;8.77;;;;;;;10.89;100.00;102747.19;5305001;28;20027;-78
2022/11/11 03:10:07;;;;;;;10.95;9.23;;;;;;;10.96;100.00;102756.41;5304487;28;20066;-79
2022/11/11 03:12:38;;;;;;;13.57;8.90;;;;;;;10.86;100.00;102754.38;5285163;28;20023;-78
2022/11/11 03:15:10;;;;;;;14.00;9.73;;;;;;;10.91;100.00;102758.44;5303851;28;20059;-78
2022/11/11 03:17:41;;;;;;;11.40;9.10;;;;;;;10.85;100.00;102748.28;5305159;28;20020;-79
2022/11/11 03:23:11;;;;;;;14.87;9.03;;;;;;;10.93;100.00;102751.31;5303793;28;20028;-78
2022/11/11 03:25:47;;;;;;;12.45;9.45;;;;;;;10.95;100.00;102761.75;5304373;28;20118;-78
2022/11/11 03:28:20;;;;;;;10.25;8.95;;;;;;;10.91;100.00;102774.19;5305117;28;20043;-79
2022/11/11 03:30:52;;;;;;;13.05;8.48;;;;;;;10.88;100.00;102771.72;5303105;28;20047;-79
2022/11/11 03:33:23;;;;;;;12.38;8.85;;;;;;;10.89;100.00;102768.16;5303804;28;20031;-78
2022/11/11 03:35:55;;;;;;;14.75;8.73;;;;;;;10.90;100.00;102767.22;5283353;28;20019;-79
2022/11/11 03:38:26;;;;;;;12.77;9.52;;;;;;;10.93;100.00;102769.69;5302227;28;20044;-78
2022/11/11 03:40:58;;;;;;;14.75;9.20;;;;;;;10.87;100.00;102767.41;5301168;28;20027;-78
2022/11/11 03:43:31;;;;;;;12.52;8.90;;;;;;;10.91;100.00;102768.94;5303554;28;20038;-79
2022/11/11 03:46:04;;;;;;;15.57;9.18;;;;;;;10.89;100.00;102767.31;5302760;28;20028;-79
2022/11/11 03:48:36;;;;;;;15.10;9.27;;;;;;;10.87;100.00;102756.94;5301404;28;20031;-79
2022/11/11 03:51:07;;;;;;;14.30;9.77;;;;;;;10.79;100.00;102739.91;5301220;28;20036;-79
2022/11/11 03:53:38;;;;;;;12.55;8.55;;;;;;;10.81;100.00;102754.63;5301127;28;20035;-79
2022/11/11 03:56:09;;;;;;;14.10;9.82;;;;;;;10.79;100.00;102759.09;5284316;28;20036;-78
2022/11/11 03:58:41;;;;;;;10.07;8.82;;;;;;;10.77;100.00;102754.88;5301980;28;20028;-78
2022/11/11 04:10:21;;;;;;;12.20;9.13;;;;;;;10.81;100.00;102754.63;5303661;28;20061;-79
2022/11/11 04:16:04;;;;;;;12.13;8.93;;;;;;;10.84;100.00;102778.06;5309890;28;20038;-78
2022/11/11 04:18:16;;;;;;;13.30;9.50;;;;;;;10.69;100.00;102771.88;5307447;28;20501;-78
2022/11/11 04:23:37;;;;;;;15.15;9.32;;;;;;;10.69;100.00;102776.28;5309063;28;20036;-79
2022/11/11 04:26:08;;;;;;;13.13;8.65;;;;;;;10.69;100.00;102774.50;5309001;28;20027;-79
2022/11/11 04:31:30;;;;;;;13.57;9.50;;;;;;;10.78;100.00;102781.00;5308429;28;20024;-79
2022/11/11 04:34:01;;;;;;;14.27;9.88;;;;;;;10.74;100.00;102774.25;5308585;28;20020;-78
2022/11/11 04:36:32;;;;;;;11.60;9.55;;;;;;;10.73;100.00;102769.09;5306590;28;20024;-79
2022/11/11 04:41:53;;;;;;;13.88;10.23;;;;;;;10.65;100.00;102766.91;5306334;28;20044;-78
2022/11/11 04:47:14;;;;;;;12.27;9.55;;;;;;;10.73;100.00;102782.22;5302849;28;20027;-78
2022/11/11 04:49:46;;;;;;;13.35;10.18;;;;;;;10.75;100.00;102775.09;5302411;28;20425;-78
2022/11/11 04:52:26;;;;;;;15.40;9.20;;;;;;;10.71;100.00;102779.66;5304259;28;20481;-78
2022/11/11 04:57:48;;;;;;;13.15;9.35;;;;;;;10.62;100.00;102775.75;5302334;28;20032;-78
2022/11/11 05:00:19;;;;;;;12.95;9.65;;;;;;;10.51;100.00;102765.00;5299767;28;20642;-78
2022/11/11 05:11:34;;;;;;;11.67;8.73;;;;;;;10.64;100.00;102770.44;5305432;28;20028;-78
2022/11/11 05:22:38;;;;;;;13.88;9.45;;;;;;;10.43;100.00;102781.16;5306984;28;20039;-78
2022/11/11 05:25:29;;;;;;;11.48;9.63;;;;;;;10.43;100.00;102778.53;5310552;28;20027;-78
2022/11/11 05:28:00;;;;;;;11.77;9.45;;;;;;;10.39;100.00;102776.16;5311446;28;20119;-78
2022/11/11 05:30:33;;;;;;;12.25;9.70;;;;;;;10.38;100.00;102783.19;5310956;28;20059;-78
2022/11/11 05:33:04;;;;;;;14.93;9.27;;;;;;;10.33;100.00;102772.06;5292826;28;20020;-78
2022/11/11 05:35:36;;;;;;;13.30;9.25;;;;;;;10.37;100.00;102775.38;5311521;28;20361;-78
2022/11/11 05:38:19;;;;;;;11.35;8.80;;;;;;;10.38;100.00;102784.91;5308106;28;20523;-78
2022/11/11 05:40:50;;;;;;;10.43;8.82;;;;;;;10.36;100.00;102789.41;5311486;28;20032;-78
2022/11/11 05:43:22;;;;;;;13.82;9.20;;;;;;;10.36;100.00;102789.41;5309764;28;20028;-78
2022/11/11 05:45:53;;;;;;;11.57;9.38;;;;;;;10.32;100.00;102795.75;5308816;28;20036;-77
2022/11/11 05:48:24;;;;;;;11.63;9.82;;;;;;;10.26;100.00;102791.66;5302939;28;20123;-77
2022/11/11 05:50:58;;;;;;;12.18;9.40;;;;;;;10.28;100.00;102781.13;5307149;28;20024;-78
2022/11/11 05:53:30;;;;;;;10.85;9.02;;;;;;;10.16;100.00;102777.34;5311025;28;20153;-78
2022/11/11 05:56:01;;;;;;;11.63;8.88;;;;;;;10.15;100.00;102775.63;5311122;28;20041;-77
2022/11/11 05:58:32;;;;;;;12.18;9.25;;;;;;;10.15;100.00;102779.13;5310316;28;20077;-78
2022/11/11 06:01:14;;;;;;;12.05;10.20;;;;;;;10.10;100.00;102767.16;5312704;28;20040;-79
2022/11/11 06:04:19;;;;;;;11.85;10.60;;;;;;;10.17;100.00;102765.94;5275481;28;20127;-82
2022/11/11 06:07:04;;;;;;;12.48;9.68;;;;;;;9.88;100.00;102742.09;5282308;28;20042;-79
2022/11/11 06:09:45;;;;;;;14.68;9.88;;;;;;;9.66;100.00;102729.28;5282831;28;20035;-80
2022/11/11 06:12:16;;;;;;;11.85;10.32;;;;;;;9.88;100.00;102783.13;5305601;28;20097;-80
2022/11/11 06:14:47;;;;;;;10.95;9.55;;;;;;;9.74;100.00;102768.13;5277922;28;20017;-80
2022/11/11 06:17:19;;;;;;;10.85;8.88;;;;;;;9.75;100.00;102780.28;5302149;28;20389;-78
2022/11/11 06:20:19;;;;;;;12.52;9.65;;;;;;;9.80;100.00;102736.41;5300704;28;20054;-78
2022/11/11 06:23:38;;;;;;;12.38;9.65;;;;;;;10.10;100.00;102796.81;5276286;28;20131;-78
2022/11/11 06:26:13;;;;;;;13.55;9.85;;;;;;;9.52;100.00;102757.06;5310115;28;20028;-79
2022/11/11 06:28:57;;;;;;;12.93;9.30;;;;;;;9.71;100.00;102805.78;5303532;28;20493;-80
2022/11/11 06:31:36;;;;;;;;;;;;;;;10.30;100.00;102810.69;5297795;28;20043;-79
2022/11/11 06:34:40;;;;;;;11.02;9.68;;;;;;;9.34;100.00;102741.31;5276124;28;19920;-80
2022/11/11 06:37:36;;;;;;;12.93;10.43;;;;;;;9.70;100.00;102777.06;5291931;28;20105;-79
2022/11/11 06:40:13;;;;;;;15.35;10.50;;;;;;;9.53;100.00;102779.66;5250996;28;20121;-79
2022/11/11 06:42:52;;;;;;;12.32;10.35;;;;;;;9.50;100.00;102797.19;5253208;28;20119;-78
2022/11/11 06:45:36;;;;;;;11.98;9.68;;;;;;;9.19;100.00;102758.63;5253339;28;20449;-79
2022/11/11 06:48:26;;;;;;;;;;;;;;;10.17;100.00;102834.03;5281923;28;20051;-80
2022/11/11 06:51:03;;;;;;;11.63;10.25;;;;;;;9.28;100.00;102775.66;5281745;28;19963;-79
2022/11/11 06:53:49;;;;;;;12.98;10.27;;;;;;;9.02;100.00;102755.97;5272017;28;20115;-78
2022/11/11 06:56:30;;;;;;;11.68;9.90;;;;;;;9.06;100.00;102770.59;5254062;28;20029;-78
2022/11/11 06:59:01;;;;;;;13.63;10.65;;;;;;;9.05;100.00;102781.94;5259370;28;20017;-79
2022/11/11 07:01:53;;;;;;;13.55;10.40;;;;;;;8.96;100.00;102754.50;5273207;28;20167;-78
2022/11/11 07:04:38;;;;;;;13.15;10.18;;;;;;;9.11;100.00;102773.00;5270435;28;20033;-80
2022/11/11 07:07:13;;;;;;;13.23;10.73;;;;;;;8.83;100.00;102758.63;5265299;28;20460;-78
2022/11/11 07:09:44;;;;;;;13.75;10.40;;;;;;;8.81;100.00;102754.38;5252687;28;20025;-79
2022/11/11 07:12:16;;;;;;;10.95;9.25;;;;;;;9.22;100.00;102828.25;5255047;28;20071;-79
2022/11/11 07:14:47;;;;;;;12.68;9.30;;;;;;;9.20;100.00;102823.06;5255594;28;20047;-78
2022/11/11 07:17:18;;;;;;;12.88;10.23;;;;;;;9.22;100.00;102836.09;5249411;28;20511;-79
2022/11/11 07:19:50;;;;;;;11.88;9.23;;;;;;;9.24;100.00;102837.72;5252095;28;20501;-81
2022/11/11 07:22:21;;;;;;;14.13;9.48;;;;;;;9.17;100.00;102825.00;5256184;28;20029;-78
2022/11/11 07:24:52;;;;;;;13.68;10.02;;;;;;;9.22;100.00;102844.78;5255057;28;20026;-78
2022/11/11 07:27:23;;;;;;;12.20;8.85;;;;;;;9.20;100.00;102848.38;5253206;28;20645;-80
2022/11/11 07:29:55;;;;;;;11.25;9.27;;;;;;;9.25;100.00;102849.88;5246740;28;20025;-81
2022/11/11 07:32:26;;;;;;;14.63;9.77;;;;;;;9.22;100.00;102847.41;5254117;28;20070;-78
2022/11/11 07:34:57;;;;;;;10.75;9.27;;;;;;;9.25;100.00;102851.63;5254502;28;20032;-79
2022/11/11 07:37:32;;;;;;;11.68;9.55;;;;;;;9.30;100.00;102852.25;5253358;28;20108;-81
2022/11/11 07:40:03;;;;;;;10.25;8.45;;;;;;;9.23;100.00;102862.16;5291571;28;20070;-80
2022/11/11 07:42:38;;;;;;;13.50;9.90;;;;;;;9.22;100.00;102855.25;5295592;28;20577;-78
2022/11/11 07:45:11;;;;;;;15.80;9.88;;;;;;;9.23;100.00;102858.69;5276640;28;20024;-78
2022/11/11 07:47:43;;;;;;;12.30;10.13;;;;;;;9.29;100.00;102861.03;5295135;28;20063;-79
2022/11/11 07:50:14;;;;;;;11.90;9.52;;;;;;;9.22;100.00;102846.56;5294927;28;20073;-78
2022/11/11 07:52:49;;;;;;;11.80;9.18;;;;;;;9.37;100.00;102868.53;5295864;28;20020;-78
2022/11/11 07:55:20;;;;;;;11.38;9.82;;;;;;;9.35;100.00;102878.19;5294276;28;20032;-78
2022/11/11 07:57:52;;;;;;;12.32;10.40;;;;;;;9.34;100.00;102879.13;5295938;28;20034;-80
2022/11/11 08:00:23;;;;;;;12.93;10.23;;;;;;;9.35;100.00;102886.03;5296387;28;20071;-78
2022/11/11 08:02:55;;;;;;;14.63;10.52;;;;;;;9.34;100.00;102869.50;5294419;28;20030;-78
2022/11/11 08:05:26;;;;;;;15.68;10.57;;;;;;;9.40;100.00;102895.38;5296391;28;20456;-80
2022/11/11 08:08:05;;;;;;;15.13;10.02;;;;;;;9.53;100.00;102895.66;5296492;28;20574;-78
2022/11/11 08:10:36;;;;;;;11.02;9.30;;;;;;;9.42;100.00;102898.75;5296328;28;20389;-82
2022/11/11 08:16:02;;;;;;;11.97;10.67;;;;;;;9.46;100.00;102905.53;5296257;28;20028;-79
2022/11/11 08:18:34;;;;;;;11.05;9.80;;;;;;;9.49;100.00;102905.41;5295730;28;20489;-78
2022/11/11 08:21:06;;;;;;;12.55;9.82;;;;;;;9.49;100.00;102910.63;5277557;28;20051;-79
2022/11/11 08:23:37;;;;;;;13.32;10.30;;;;;;;9.49;100.00;102905.41;5295887;28;20509;-79
2022/11/11 08:26:08;;;;;;;11.90;10.50;;;;;;;9.57;100.00;102906.81;5295059;28;20053;-78
2022/11/11 08:28:40;;;;;;;12.17;10.87;;;;;;;9.56;100.00;102911.22;5294495;28;20058;-78
2022/11/11 08:31:12;;;;;;;12.25;10.75;;;;;;;9.59;100.00;102911.06;5294682;28;20115;-79
2022/11/11 08:33:43;;;;;;;11.18;9.63;;;;;;;9.56;100.00;102907.75;5295025;28;20645;-79
2022/11/11 08:36:14;;;;;;;11.55;9.95;;;;;;;9.57;100.00;102918.13;5295407;28;20455;-80
2022/11/11 08:38:46;;;;;;;13.15;9.75;;;;;;;9.63;100.00;102920.47;5303077;28;20066;-78
2022/11/11 08:41:17;;;;;;;12.60;10.43;;;;;;;9.68;100.00;102928.09;5306762;28;20839;-78
2022/11/11 08:43:53;;;;;;;10.27;9.18;;;;;;;9.83;100.00;102924.72;5306173;28;20035;-78
2022/11/11 08:46:25;;;;;;;11.73;9.68;;;;;;;9.79;100.00;102931.03;5303491;28;20050;-78
2022/11/11 08:48:56;;;;;;;10.20;8.95;;;;;;;9.87;100.00;102931.50;5305961;28;20036;-78
2022/11/11 08:51:28;;;;;;;11.32;9.65;;;;;;;9.87;100.00;102942.00;5305052;28;20028;-78
2022/11/11 08:53:59;;;;;;;11.00;9.10;;;;;;;9.81;100.00;102923.09;5301518;28;20028;-78
2022/11/11 08:56:30;;;;;;;9.73;8.73;;;;;;;9.93;100.00;102935.63;5306957;28;20027;-78
2022/11/11 08:59:02;;;;;;;10.50;8.65;;;;;;;9.91;100.00;102938.28;5305126;28;20016;-78
2022/11/11 09:01:33;;;;;;;11.50;9.27;;;;;;;9.93;100.00;102941.69;5307359;28;20032;-78
2022/11/11 09:04:04;;;;;;;10.80;7.90;;;;;;;10.02;100.00;102935.16;5305962;28;20078;-78
2022/11/11 09:06:36;;;;;;;13.93;9.13;;;;;;;10.06;100.00;102941.94;5309910;28;20048;-78
2022/11/11 09:09:07;;;;;;;11.05;8.43;;;;;;;10.05;100.00;102932.41;5311661;28;20036;-78
2022/11/11 09:11:38;;;;;;;9.23;8.23;;;;;;;10.07;100.00;102934.94;5310478;28;20044;-78
2022/11/11 09:14:09;;;;;;;8.75;7.82;;;;;;;10.14;100.00;102945.03;5313995;28;20108;-78
2022/11/11 09:16:41;;;;;;;9.85;8.05;;;;;;;10.15;100.00;102941.50;5312684;28;20051;-78
2022/11/11 09:19:12;;;;;;;10.23;8.40;;;;;;;10.15;100.00;102940.63;5312307;28;20082;-78
2022/11/11 09:21:43;;;;;;;10.43;7.75;;;;;;;10.10;100.00;102938.25;5313241;28;20049;-78
2022/11/11 09:24:14;;;;;;;11.52;7.75;;;;;;;10.20;100.00;102941.28;5312344;28;20051;-78
2022/11/11 09:26:48;;;;;;;9.43;7.97;;;;;;;10.13;100.00;102924.16;5312565;28;20119;-78
2022/11/11 09:29:19;;;;;;;10.52;7.55;;;;;;;10.24;100.00;102946.28;5313586;28;20048;-78
2022/11/11 09:31:50;;;;;;;9.13;7.13;;;;;;;10.31;100.00;102949.47;5291734;28;20256;-78
2022/11/11 09:34:22;;;;;;;9.50;7.70;;;;;;;10.34;100.00;102941.47;5312647;28;20070;-78
2022/11/11 09:36:53;;;;;;;8.23;6.72;;;;;;;10.41;100.00;102952.47;5306049;28;20035;-78
2022/11/11 09:39:24;;;;;;;11.45;7.65;;;;;;;10.49;100.00;102952.91;5304977;28;20135;-78
2022/11/11 09:42:19;;;;;;;9.48;7.93;;;;;;;10.78;100.00;102947.97;5308101;28;20046;-78
2022/11/11 09:45:19;;;;;;;9.38;7.47;;;;;;;10.66;100.00;102958.16;5308507;28;20369;-78
2022/11/11 09:48:17;;;;;;;11.20;8.18;;;;;;;10.74;100.00;102962.16;5306251;28;20034;-78
2022/11/11 09:50:53;;;;;;;10.13;7.88;;;;;;;10.71;100.00;102944.81;5308882;28;20019;-78
2022/11/11 09:53:38;;;;;;;9.45;7.47;;;;;;;10.84;100.00;102961.63;5308762;28;20020;-78
2022/11/11 09:56:14;;;;;;;9.02;7.43;;;;;;;10.84;100.00;102971.25;5308013;28;20048;-78
2022/11/11 09:58:50;;;;;;;10.52;7.93;;;;;;;10.83;100.00;102959.06;5307763;28;20020;-78
2022/11/11 10:01:27;;;;;;;10.07;7.53;;;;;;;10.89;100.00;102956.13;5307918;28;20028;-78
2022/11/11 10:04:27;;;;;;;8.02;6.97;;;;;;;11.01;100.00;102952.84;5306325;28;20082;-78
2022/11/11 10:07:32;;;;;;;8.18;7.20;;;;;;;11.23;100.00;102965.69;5308661;28;20027;-78
2022/11/11 10:10:11;;;;;;;8.35;6.82;;;;;;;11.07;100.00;102960.41;5309638;28;20058;-78
2022/11/11 10:12:49;;;;;;;9.02;7.25;;;;;;;11.13;100.00;102970.56;5311246;28;20032;-78
2022/11/11 10:15:23;;;;;;;10.20;6.72;;;;;;;11.17;100.00;102960.75;5312097;28;20077;-78
2022/11/11 10:18:25;;;;;;;7.55;6.65;;;;;;;11.48;100.00;102967.81;5309352;28;20032;-78
2022/11/11 10:20:57;;;;;;;8.40;6.75;;;;;;;11.33;100.00;102961.63;5310156;28;20028;-78
2022/11/11 10:23:31;;;;;;;8.02;6.68;;;;;;;11.42;100.00;102968.16;5312183;28;20050;-79
2022/11/11 10:26:14;;;;;;;8.82;6.90;;;;;;;11.59;100.00;102959.34;5312557;28;20028;-79
2022/11/11 10:28:48;;;;;;;8.15;6.50;;;;;;;11.60;100.00;102964.53;5311092;28;20028;-79
2022/11/11 10:31:22;;;;;;;7.32;6.03;;;;;;;11.67;100.00;102957.16;5310787;28;20071;-79
2022/11/11 10:34:01;;;;;;;8.50;6.28;;;;;;;11.74;100.00;102968.97;5309957;28;20027;-78
2022/11/11 10:36:37;;;;;;;7.88;7.07;;;;;;;11.86;100.00;102965.72;5312061;28;20123;-78
2022/11/11 10:39:16;;;;;;;8.07;6.32;;;;;;;12.05;100.00;102967.31;5311893;28;20463;-78
2022/11/11 10:41:49;;;;;;;8.23;6.40;;;;;;;12.07;100.00;102968.06;5312483;28;20034;-78
2022/11/11 10:44:25;;;;;;;;;;;;;;;12.66;100.00;102969.81;5312768;28;20028;-78
2022/11/11 10:47:25;;;;;;;7.70;5.63;;;;;;;12.35;100.00;102970.81;5312562;28;19927;-79
2022/11/11 10:50:04;;;;;;;6.97;5.82;;;;;;;12.28;100.00;102968.63;5312722;28;20028;-79
2022/11/11 10:52:40;;;;;;;6.40;5.30;;;;;;;12.37;100.00;102966.28;5311617;28;20653;-78
2022/11/11 10:55:50;;;;;;;6.20;5.13;;;;;;;12.72;100.00;102963.34;5312882;28;20126;-78
2022/11/11 10:58:34;;;;;;;8.93;5.85;;;;;;;12.66;100.00;102959.31;5271437;28;20036;-79
2022/11/11 11:01:09;;;;;;;7.88;5.13;;;;;;;12.66;100.00;102968.97;5314396;28;20031;-79
2022/11/11 11:03:52;;;;;;;6.40;4.40;;;;;;;12.84;100.00;102961.75;5311724;28;20031;-79
2022/11/11 11:06:27;;;;;;;8.73;4.93;;;;;;;12.83;100.00;102962.69;5313399;28;20027;-79
2022/11/11 11:09:11;;;;;;;6.45;4.70;;;;;;;12.94;100.00;102951.53;5312278;28;20376;-79
2022/11/11 11:11:53;;;;;;;5.72;4.32;;;;;;;13.09;100.00;102961.94;5311946;28;20057;-78
2022/11/11 11:14:34;;;;;;;4.88;3.90;;;;;;;13.15;100.00;102955.47;5312864;28;20043;-79
2022/11/11 11:17:33;;;;;;;5.65;3.75;;;;;;;13.34;100.00;102950.78;5292338;28;20042;-79
2022/11/11 11:20:07;;;;;;;5.28;3.85;;;;;;;13.25;100.00;102951.34;5311975;28;20028;-79
2022/11/11 11:22:56;;;;;;;4.28;3.50;;;;;;;13.45;100.00;102949.22;5311012;28;20091;-79
2022/11/11 11:25:32;;;;;;;3.78;3.13;;;;;;;13.33;100.00;102949.09;5313991;28;20080;-79
2022/11/11 11:28:09;;;;;;;4.63;2.78;;;;;;;13.43;100.00;102948.50;5314069;28;20027;-79
2022/11/11 11:30:57;;;;;;;5.85;3.28;;;;;;;13.57;100.00;102946.69;5312869;28;20038;-79
2022/11/11 11:33:50;;;;;;;4.25;3.00;;;;;;;13.65;100.00;102943.56;5313057;28;20028;-79
2022/11/11 11:36:21;;;;;;;4.70;2.72;;;;;;;13.45;100.00;102952.75;5314285;28;20024;-79
2022/11/11 11:38:53;;;;;;;4.45;2.63;;;;;;;13.42;100.00;102931.88;5312313;28;20139;-79
2022/11/11 11:41:56;;;;;;;6.05;2.67;;;;;;;13.86;100.00;102939.53;5313003;28;20028;-79
2022/11/11 11:44:30;;;;;;;6.05;2.80;;;;;;;13.61;100.00;102952.59;5276932;28;20043;-79
2022/11/11 11:47:23;;;;;;;3.55;2.58;;;;;;;13.89;100.00;102946.38;5313560;28;20062;-79
2022/11/11 11:50:10;;;;;;;4.05;2.17;;;;;;;13.87;100.00;102946.50;5305450;28;20032;-77
2022/11/11 11:52:44;;;;;;;3.22;2.10;;;;;;;13.68;100.00;102948.63;5305642;28;20028;-78
2022/11/11 11:55:27;;;;;;;3.13;1.90;;;;;;;13.86;100.00;102943.94;5309427;28;20023;-79
2022/11/11 11:58:30;;;;;;;3.05;1.90;;;;;;;14.14;100.00;102936.88;5307811;28;20401;-79
2022/11/11 12:01:50;;;;;;;4.70;2.10;;;;;;;14.27;100.00;102940.38;5306234;28;20015;-79
2022/11/11 12:04:44;;;;;;;5.22;1.85;;;;;;;14.15;100.00;102931.50;5301224;28;20357;-79
2022/11/11 12:07:44;;;;;;;4.80;1.50;;;;;;;14.24;100.00;102927.38;5313935;28;20027;-79
2022/11/11 12:10:44;;;;;;;4.18;1.60;;;;;;;14.33;100.00;102940.81;5312986;28;20023;-79
2022/11/11 12:13:37;;;;;;;3.47;1.90;;;;;;;14.32;100.00;102933.00;5311510;28;20095;-79
2022/11/11 12:16:32;;;;;;;2.28;1.30;;;;;;;14.41;100.00;102926.25;5315011;28;20032;-79
2022/11/11 12:19:43;;;;;;;2.63;1.40;;;;;;;14.45;100.00;102919.81;5314538;28;20028;-78
2022/11/11 12:22:14;;;;;;;2.55;1.40;;;;;;;14.25;100.00;102924.66;5312095;28;20096;-79
2022/11/11 12:25:04;;;;;;;5.63;1.30;;;;;;;14.46;100.00;102917.06;5314566;28;20059;-79
2022/11/11 12:28:14;;;;;;;4.63;1.50;;;;;;;14.58;100.00;102912.78;5312527;28;20039;-79
2022/11/11 12:31:01;;;;;;;3.35;1.58;;;;;;;14.33;100.00;102903.88;5287690;28;20608;-79
2022/11/11 12:34:24;;;;;;;3.03;1.60;;;;;;;14.67;100.00;102916.59;5314850;28;20487;-79
2022/11/11 12:37:16;;;;;;;3.65;1.35;;;;;;;14.46;100.00;102903.03;5272639;28;20090;-79
2022/11/11 12:40:21;;;;;;;2.40;1.25;;;;;;;14.53;100.00;102912.25;5311713;28;20060;-78
2022/11/11 12:43:11;;;;;;;5.22;1.30;;;;;;;14.55;100.00;102902.47;5306484;28;20058;-78
2022/11/11 12:46:24;;;;;;;3.70;1.13;;;;;;;14.60;100.00;102908.25;5296163;28;20033;-78
2022/11/11 12:49:26;;;;;;;2.10;1.20;;;;;;;14.65;100.00;102913.22;5288948;28;20032;-79
2022/11/11 12:52:36;;;;;;;2.33;1.00;;;;;;;14.71;100.00;102904.88;5294864;28;20039;-79
2022/11/11 12:55:26;;;;;;;2.75;1.30;;;;;;;14.52;100.00;102906.16;5295491;28;20042;-79
2022/11/11 12:58:16;;;;;;;3.03;1.30;;;;;;;14.57;100.00;102901.38;5296155;28;20367;-78
2022/11/11 13:01:12;;;;;;;2.55;1.10;;;;;;;14.52;100.00;102908.78;5291078;28;20031;-79
2022/11/11 13:04:03;;;;;;;2.40;1.10;;;;;;;14.55;100.00;102897.19;5291310;28;20027;-79
2022/11/11 13:07:07;;;;;;;4.25;1.30;;;;;;;14.78;100.00;102899.06;5294530;28;20032;-79
2022/11/11 13:09:59;;;;;;;4.15;1.27;;;;;;;14.74;100.00;102897.59;5295207;28;20028;-81
2022/11/11 13:12:37;;;;;;;2.70;1.27;;;;;;;14.75;100.00;102896.63;5296027;28;20069;-79
2022/11/11 13:15:20;;;;;;;2.38;0.93;;;;;;;14.78;100.00;102891.16;5293347;28;20028;-81